Time;durP1;ratioP1;P1;durP2;ratioP2;P2;SDS_P1;SDS_P2;PMS_P1;PMS_P2;Temp;Humidity;BMP_temperature;BMP_pressure;BME280_temperature;BME280_humidity;BME280_pressure;Samples;Min_cycle;Max_cycle;Signal;HPM_P1;HPM_P2
2023/03/08 00:00:19;;;;;;;33.85;14.00;;;;;;;;;;8361690;28;20056;-86
2023/03/08 00:04:42;;;;;;;34.55;15.32;;;;;;;;;;8359389;28;20045;-86
2023/03/08 00:08:47;;;;;;;38.13;17.00;;;;;;;;;;8362400;28;20199;-86
2023/03/08 00:12:50;;;;;;;33.17;15.38;;;;;;;;;;8367396;28;20411;-86
2023/03/08 00:16:53;;;;;;;33.92;15.93;;;;;;;;;;8361028;28;20045;-87
2023/03/08 00:21:00;;;;;;;28.60;13.73;;;;;;;;;;8358740;28;20042;-86
2023/03/08 00:25:05;;;;;;;26.85;13.48;;;;;;;;;;8366341;28;20052;-87
2023/03/08 00:29:08;;;;;;;31.45;14.02;;;;;;;;;;8366590;28;20049;-87
2023/03/08 00:33:11;;;;;;;31.10;13.88;;;;;;;;;;8348378;28;20071;-86
2023/03/08 00:37:14;;;;;;;30.60;14.02;;;;;;;;;;8365956;28;20052;-87
2023/03/08 00:41:19;;;;;;;29.88;14.02;;;;;;;;;;8333107;28;20050;-87
2023/03/08 00:45:22;;;;;;;30.30;14.25;;;;;;;;;;8363809;28;20045;-86
2023/03/08 00:49:24;;;;;;;25.58;12.18;;;;;;;;;;8365609;28;20048;-86
2023/03/08 00:53:27;;;;;;;32.45;13.30;;;;;;;;;;8352629;28;20041;-86
2023/03/08 00:57:32;;;;;;;23.52;11.50;;;;;;;;;;8359334;28;20668;-86
2023/03/08 01:01:35;;;;;;;29.42;13.77;;;;;;;;;;8362628;28;20048;-86
2023/03/08 01:05:40;;;;;;;28.80;14.07;;;;;;;;;;8365197;28;20049;-87
2023/03/08 01:09:43;;;;;;;24.13;12.77;;;;;;;;;;8366639;28;20041;-86
2023/03/08 01:13:48;;;;;;;21.27;11.23;;;;;;;;;;8365305;28;20045;-86
2023/03/08 01:17:51;;;;;;;26.75;13.75;;;;;;;;;;8366836;28;20045;-85
2023/03/08 01:21:53;;;;;;;31.17;12.57;;;;;;;;;;8368061;28;20052;-86
2023/03/08 01:26:00;;;;;;;27.95;13.02;;;;;;;;;;8367795;28;20072;-85
2023/03/08 01:30:04;;;;;;;21.77;12.02;;;;;;;;;;8366021;28;20087;-87
2023/03/08 01:34:07;;;;;;;23.02;12.45;;;;;;;;;;8352300;28;20053;-87
2023/03/08 01:38:10;;;;;;;23.75;13.20;;;;;;;;;;8360954;28;20086;-87
2023/03/08 01:42:13;;;;;;;26.23;12.23;;;;;;;;;;8353722;28;20041;-87
2023/03/08 01:46:35;;;;;;;22.00;11.88;;;;;;;;;;8375643;28;20411;-87
2023/03/08 01:50:38;;;;;;;14.00;7.90;;;;;;;;;;8376801;28;20080;-86
2023/03/08 01:54:46;;;;;;;18.27;8.80;;;;;;;;;;8363940;28;20480;-86
2023/03/08 01:58:51;;;;;;;21.48;11.77;;;;;;;;;;8364144;28;20048;-87
2023/03/08 02:03:01;;;;;;;24.33;12.25;;;;;;;;;;8364002;28;20045;-87
2023/03/08 02:07:04;;;;;;;21.02;12.15;;;;;;;;;;8364132;28;20047;-87
2023/03/08 02:11:06;;;;;;;20.73;9.45;;;;;;;;;;8363793;28;20052;-87
2023/03/08 02:15:12;;;;;;;21.33;10.95;;;;;;;;;;8363479;28;20052;-87
2023/03/08 02:19:22;;;;;;;12.68;7.22;;;;;;;;;;8363677;28;20045;-86
2023/03/08 02:23:27;;;;;;;19.55;10.75;;;;;;;;;;8353599;28;20530;-86
2023/03/08 02:27:30;;;;;;;18.13;10.43;;;;;;;;;;8358573;28;20041;-87
2023/03/08 02:31:33;;;;;;;18.35;8.82;;;;;;;;;;8362216;28;20541;-87
2023/03/08 02:35:37;;;;;;;22.25;10.00;;;;;;;;;;8363283;28;20484;-87
2023/03/08 02:39:41;;;;;;;21.52;9.90;;;;;;;;;;8351179;28;20088;-86
2023/03/08 02:43:44;;;;;;;17.63;9.48;;;;;;;;;;8363236;28;20049;-87
2023/03/08 02:47:46;;;;;;;14.98;8.57;;;;;;;;;;8362459;28;20041;-87
2023/03/08 02:51:49;;;;;;;19.48;9.73;;;;;;;;;;8362620;28;20052;-87
2023/03/08 02:55:53;;;;;;;15.35;7.80;;;;;;;;;;8361761;28;20045;-86
2023/03/08 02:59:56;;;;;;;8.48;4.88;;;;;;;;;;8362525;28;20170;-87
2023/03/08 03:03:59;;;;;;;20.52;9.95;;;;;;;;;;8354775;28;20177;-87
2023/03/08 03:08:02;;;;;;;14.70;8.07;;;;;;;;;;8362540;28;20124;-87
2023/03/08 03:12:07;;;;;;;7.07;4.30;;;;;;;;;;8362515;28;20048;-86
2023/03/08 03:16:11;;;;;;;10.10;5.70;;;;;;;;;;8362089;28;20060;-87
2023/03/08 03:20:14;;;;;;;8.68;5.10;;;;;;;;;;8361952;28;20045;-86
2023/03/08 03:24:17;;;;;;;6.28;3.50;;;;;;;;;;8362364;28;20040;-86
2023/03/08 03:28:22;;;;;;;12.23;5.13;;;;;;;;;;8348947;28;20052;-86
2023/03/08 03:32:25;;;;;;;9.05;4.03;;;;;;;;;;8362032;28;20068;-86
2023/03/08 03:36:28;;;;;;;2.83;2.03;;;;;;;;;;8362039;28;20049;-86
2023/03/08 03:40:31;;;;;;;8.60;4.90;;;;;;;;;;8361671;28;20068;-87
2023/03/08 03:44:35;;;;;;;9.73;4.88;;;;;;;;;;8366006;28;20048;-86
2023/03/08 03:48:38;;;;;;;15.85;5.60;;;;;;;;;;8368003;28;20049;-86
2023/03/08 03:52:41;;;;;;;11.85;5.30;;;;;;;;;;8367914;28;20053;-85
2023/03/08 03:56:44;;;;;;;11.43;5.53;;;;;;;;;;8368208;28;20400;-85
2023/03/08 04:00:49;;;;;;;10.63;4.63;;;;;;;;;;8367879;28;20404;-85
2023/03/08 04:04:52;;;;;;;13.45;5.13;;;;;;;;;;8367741;28;20041;-86
2023/03/08 04:08:56;;;;;;;11.82;5.03;;;;;;;;;;8367338;28;20048;-84
2023/03/08 04:12:59;;;;;;;12.02;5.85;;;;;;;;;;8367825;28;20410;-85
2023/03/08 04:17:04;;;;;;;9.95;4.88;;;;;;;;;;8368032;28;20052;-86
2023/03/08 04:21:07;;;;;;;10.00;5.70;;;;;;;;;;8367026;28;20056;-86
2023/03/08 04:25:10;;;;;;;9.25;5.47;;;;;;;;;;8366880;28;20129;-86
2023/03/08 04:29:13;;;;;;;9.75;4.97;;;;;;;;;;8366999;28;20512;-85
2023/03/08 04:33:18;;;;;;;12.52;5.22;;;;;;;;;;8366806;28;20582;-86
2023/03/08 04:37:21;;;;;;;12.40;6.07;;;;;;;;;;8366566;28;20127;-86
2023/03/08 04:41:24;;;;;;;15.27;5.65;;;;;;;;;;8366355;28;20140;-87
2023/03/08 04:45:27;;;;;;;12.65;6.82;;;;;;;;;;8366264;28;20094;-86
2023/03/08 04:49:31;;;;;;;11.32;5.97;;;;;;;;;;8366101;28;20051;-87
2023/03/08 04:53:35;;;;;;;11.38;6.00;;;;;;;;;;8379697;28;20045;-86
2023/03/08 04:57:38;;;;;;;10.63;5.13;;;;;;;;;;8366830;28;20476;-87
2023/03/08 05:01:41;;;;;;;10.35;5.22;;;;;;;;;;8366175;28;20056;-86
2023/03/08 05:05:50;;;;;;;11.85;4.68;;;;;;;;;;8365123;28;20144;-86
2023/03/08 05:09:53;;;;;;;10.00;5.10;;;;;;;;;;8365736;28;20048;-86
2023/03/08 05:13:59;;;;;;;11.05;5.45;;;;;;;;;;8365803;28;20040;-85
2023/03/08 05:18:01;;;;;;;13.05;5.80;;;;;;;;;;8364126;28;20045;-85
2023/03/08 05:22:05;;;;;;;15.60;5.75;;;;;;;;;;8365531;28;20123;-86
2023/03/08 05:26:10;;;;;;;10.60;5.25;;;;;;;;;;8365909;28;20045;-87
2023/03/08 05:30:14;;;;;;;6.80;3.40;;;;;;;;;;8366692;28;20102;-87
2023/03/08 05:34:17;;;;;;;5.45;3.17;;;;;;;;;;8366353;28;20037;-87
2023/03/08 05:38:21;;;;;;;9.95;4.20;;;;;;;;;;8364703;28;20056;-84
2023/03/08 05:42:26;;;;;;;9.38;5.13;;;;;;;;;;8364693;28;20052;-87
2023/03/08 05:46:29;;;;;;;10.40;4.88;;;;;;;;;;8364409;28;20052;-87
2023/03/08 05:50:37;;;;;;;10.45;4.35;;;;;;;;;;8364205;28;20045;-85
2023/03/08 05:54:42;;;;;;;11.55;4.50;;;;;;;;;;8364263;28;20076;-88
2023/03/08 05:58:45;;;;;;;5.25;3.53;;;;;;;;;;8364045;28;20051;-87
2023/03/08 06:02:48;;;;;;;4.57;2.67;;;;;;;;;;8357250;28;20055;-84
2023/03/08 06:06:51;;;;;;;9.57;3.92;;;;;;;;;;8362203;28;20044;-86
2023/03/08 06:10:55;;;;;;;13.00;3.78;;;;;;;;;;8363864;28;20045;-87
2023/03/08 06:14:58;;;;;;;10.45;5.22;;;;;;;;;;8363754;28;20106;-87
2023/03/08 06:19:02;;;;;;;5.50;3.80;;;;;;;;;;8363550;28;20043;-87
2023/03/08 06:23:05;;;;;;;4.60;3.10;;;;;;;;;;8352681;28;20045;-87
2023/03/08 06:27:09;;;;;;;6.97;4.10;;;;;;;;;;8363016;28;20051;-87
2023/03/08 06:31:14;;;;;;;6.47;3.47;;;;;;;;;;8362930;28;20123;-87
2023/03/08 06:35:17;;;;;;;13.50;5.70;;;;;;;;;;8362709;28;20041;-87
2023/03/08 06:39:20;;;;;;;13.55;5.70;;;;;;;;;;8362496;28;20060;-87
2023/03/08 06:43:25;;;;;;;13.30;5.95;;;;;;;;;;8362485;28;20040;-86
2023/03/08 06:47:30;;;;;;;10.80;4.72;;;;;;;;;;8362480;28;20110;-87
2023/03/08 06:51:33;;;;;;;9.40;4.55;;;;;;;;;;8362457;28;20143;-88
2023/03/08 06:55:36;;;;;;;10.82;4.45;;;;;;;;;;8362218;28;20485;-86
2023/03/08 06:59:40;;;;;;;13.18;6.78;;;;;;;;;;8347883;28;20049;-86
2023/03/08 07:03:44;;;;;;;10.90;5.78;;;;;;;;;;8349609;28;20052;-87
2023/03/08 07:07:47;;;;;;;6.55;3.78;;;;;;;;;;8371081;28;20123;-88
2023/03/08 07:11:50;;;;;;;6.85;4.07;;;;;;;;;;8361238;28;20400;-87
2023/03/08 07:15:54;;;;;;;16.15;7.32;;;;;;;;;;8361498;28;20048;-86
2023/03/08 07:19:57;;;;;;;13.30;4.75;;;;;;;;;;8353007;28;20079;-86
2023/03/08 07:24:00;;;;;;;7.40;3.40;;;;;;;;;;8367061;28;20130;-86
2023/03/08 07:28:04;;;;;;;6.45;2.78;;;;;;;;;;8367538;28;20045;-86
2023/03/08 07:32:09;;;;;;;10.18;4.93;;;;;;;;;;8368536;28;20476;-86
2023/03/08 07:36:12;;;;;;;9.15;4.07;;;;;;;;;;8368399;28;20396;-86
2023/03/08 07:40:16;;;;;;;16.33;5.05;;;;;;;;;;8359736;28;20501;-86
2023/03/08 07:44:19;;;;;;;7.28;3.72;;;;;;;;;;8363849;28;20127;-86
2023/03/08 07:48:24;;;;;;;10.63;5.13;;;;;;;;;;8367831;28;20396;-85
2023/03/08 07:52:28;;;;;;;8.35;3.50;;;;;;;;;;8354944;28;20056;-86
2023/03/08 07:56:31;;;;;;;6.60;3.40;;;;;;;;;;8367778;28;20128;-86
2023/03/08 08:00:34;;;;;;;7.13;2.92;;;;;;;;;;8367517;28;20055;-86
2023/03/08 08:04:39;;;;;;;14.15;5.50;;;;;;;;;;8367389;28;20552;-86
2023/03/08 08:08:42;;;;;;;5.45;3.47;;;;;;;;;;8367155;28;20045;-86
2023/03/08 08:12:45;;;;;;;8.27;2.95;;;;;;;;;;8367135;28;20110;-87
2023/03/08 08:16:47;;;;;;;7.32;3.78;;;;;;;;;;8366765;28;20055;-86
2023/03/08 08:21:00;;;;;;;6.97;3.50;;;;;;;;;;8366983;28;20048;-87
2023/03/08 08:25:05;;;;;;;5.75;3.03;;;;;;;;;;8367024;28;20045;-87
2023/03/08 08:29:08;;;;;;;4.65;2.47;;;;;;;;;;8365851;28;20052;-87
2023/03/08 08:33:11;;;;;;;4.90;2.17;;;;;;;;;;8366428;28;20064;-86
2023/03/08 08:37:15;;;;;;;5.85;2.53;;;;;;;;;;8375741;28;20049;-87
2023/03/08 08:41:21;;;;;;;6.95;3.30;;;;;;;;;;8369221;28;20049;-87
2023/03/08 08:45:24;;;;;;;8.93;3.15;;;;;;;;;;8366190;28;20064;-86
2023/03/08 08:49:27;;;;;;;5.68;3.17;;;;;;;;;;8364892;28;20045;-87
2023/03/08 08:53:32;;;;;;;7.97;3.40;;;;;;;;;;8363652;28;20055;-87
2023/03/08 08:57:35;;;;;;;5.38;3.10;;;;;;;;;;8352824;28;20393;-87
2023/03/08 09:01:42;;;;;;;7.78;3.17;;;;;;;;;;8349142;28;20198;-88
2023/03/08 09:05:45;;;;;;;7.10;3.22;;;;;;;;;;8362637;28;20516;-89
2023/03/08 09:09:49;;;;;;;8.13;3.28;;;;;;;;;;8363114;28;20094;-88
2023/03/08 09:13:53;;;;;;;16.27;4.20;;;;;;;;;;8350370;28;20047;-88
2023/03/08 09:17:56;;;;;;;7.53;3.60;;;;;;;;;;8365104;28;20100;-88
2023/03/08 09:21:59;;;;;;;9.68;3.83;;;;;;;;;;8364935;28;20056;-88
2023/03/08 09:26:05;;;;;;;5.05;2.55;;;;;;;;;;8365105;28;20045;-89
2023/03/08 09:30:11;;;;;;;10.65;4.18;;;;;;;;;;8364987;28;20408;-88
2023/03/08 09:34:15;;;;;;;6.15;4.05;;;;;;;;;;8364909;28;20056;-88
2023/03/08 09:38:18;;;;;;;9.25;3.97;;;;;;;;;;8358805;28;20078;-88
2023/03/08 09:42:26;;;;;;;7.47;4.45;;;;;;;;;;8358931;28;20049;-88
2023/03/08 09:46:34;;;;;;;8.23;4.13;;;;;;;;;;8352554;28;20049;-88
2023/03/08 09:50:43;;;;;;;7.65;4.35;;;;;;;;;;8361014;28;20052;-89
2023/03/08 09:54:48;;;;;;;13.65;5.85;;;;;;;;;;8355398;28;20119;-88
2023/03/08 09:58:56;;;;;;;9.45;4.45;;;;;;;;;;8362554;28;20510;-89
2023/03/08 10:03:24;;;;;;;8.05;4.63;;;;;;;;;;8377189;28;20045;-90
2023/03/08 10:07:36;;;;;;;10.38;4.55;;;;;;;;;;8359317;28;20465;-87
2023/03/08 10:11:47;;;;;;;9.88;5.30;;;;;;;;;;8358250;28;20143;-87
2023/03/08 10:15:53;;;;;;;18.70;8.05;;;;;;;;;;8360445;28;20056;-87
2023/03/08 10:20:00;;;;;;;8.68;4.72;;;;;;;;;;8361668;28;20128;-86
2023/03/08 10:24:15;;;;;;;8.23;4.85;;;;;;;;;;8358200;28;20044;-90
2023/03/08 10:28:20;;;;;;;8.25;4.35;;;;;;;;;;8356426;28;20124;-90
2023/03/08 10:32:27;;;;;;;8.85;4.43;;;;;;;;;;8361293;28;20051;-88
2023/03/08 10:36:30;;;;;;;9.75;5.20;;;;;;;;;;8353140;28;20116;-87
2023/03/08 10:40:33;;;;;;;10.90;4.38;;;;;;;;;;8358240;28;20510;-88
2023/03/08 10:44:41;;;;;;;9.45;5.28;;;;;;;;;;8345330;28;20436;-88
2023/03/08 10:48:46;;;;;;;9.05;4.45;;;;;;;;;;8352909;28;20045;-88
2023/03/08 10:52:51;;;;;;;6.53;3.45;;;;;;;;;;8350018;28;20129;-89
2023/03/08 10:56:58;;;;;;;6.88;3.38;;;;;;;;;;8365791;28;20049;-89
2023/03/08 11:01:03;;;;;;;10.02;5.10;;;;;;;;;;8357638;28;20103;-88
2023/03/08 11:05:19;;;;;;;14.88;6.68;;;;;;;;;;8349062;28;20384;-88
2023/03/08 11:09:26;;;;;;;9.85;4.78;;;;;;;;;;8362120;28;20048;-87
2023/03/08 11:13:32;;;;;;;13.40;6.50;;;;;;;;;;8361761;28;20048;-87
2023/03/08 11:17:39;;;;;;;8.18;4.25;;;;;;;;;;8361892;28;20059;-88
2023/03/08 11:21:52;;;;;;;11.98;4.82;;;;;;;;;;8361849;28;20084;-88
2023/03/08 11:26:00;;;;;;;8.95;4.40;;;;;;;;;;8342875;28;20053;-88
2023/03/08 11:30:14;;;;;;;10.52;5.50;;;;;;;;;;8337265;28;20038;-89
2023/03/08 11:34:36;;;;;;;8.77;5.15;;;;;;;;;;8361775;28;20041;-86
2023/03/08 11:38:42;;;;;;;12.95;5.45;;;;;;;;;;8365158;28;20056;-86
2023/03/08 11:42:56;;;;;;;11.73;6.63;;;;;;;;;;8368851;28;20049;-85
2023/03/08 11:47:32;;;;;;;11.98;6.13;;;;;;;;;;8351981;28;20041;-89
2023/03/08 11:51:42;;;;;;;7.90;3.90;;;;;;;;;;8336575;28;20064;-88
2023/03/08 11:56:05;;;;;;;10.10;6.30;;;;;;;;;;8358847;28;20041;-88
2023/03/08 12:00:21;;;;;;;13.27;6.40;;;;;;;;;;8358987;28;20045;-87
2023/03/08 12:04:29;;;;;;;9.35;5.13;;;;;;;;;;8360287;28;20052;-89
2023/03/08 12:08:38;;;;;;;13.07;6.03;;;;;;;;;;8367150;28;20611;-89
2023/03/08 12:12:46;;;;;;;14.52;7.10;;;;;;;;;;8354143;28;20051;-88
2023/03/08 12:16:53;;;;;;;9.88;5.43;;;;;;;;;;8366199;28;20040;-88
2023/03/08 12:21:08;;;;;;;16.55;8.10;;;;;;;;;;8366843;28;20073;-89
2023/03/08 12:25:23;;;;;;;7.97;4.97;;;;;;;;;;8363644;28;20442;-89
2023/03/08 12:29:35;;;;;;;6.93;5.05;;;;;;;;;;8363915;28;20041;-87
2023/03/08 12:33:38;;;;;;;15.18;7.25;;;;;;;;;;8364235;28;20495;-87
2023/03/08 12:37:41;;;;;;;15.57;7.15;;;;;;;;;;8350436;28;20167;-87
2023/03/08 12:41:44;;;;;;;28.45;12.32;;;;;;;;;;8366204;28;20583;-88
2023/03/08 12:46:02;;;;;;;58.22;19.65;;;;;;;;;;8366173;28;20049;-87
2023/03/08 12:50:17;;;;;;;36.97;15.95;;;;;;;;;;8365952;28;20048;-87
2023/03/08 12:54:23;;;;;;;10.02;5.10;;;;;;;;;;8365611;28;20127;-87
2023/03/08 12:58:26;;;;;;;7.90;4.45;;;;;;;;;;8365389;28;20052;-87
2023/03/08 13:02:33;;;;;;;10.23;5.93;;;;;;;;;;8352293;28;20049;-87
2023/03/08 13:07:15;;;;;;;11.75;6.10;;;;;;;;;;8363752;28;20057;-87
2023/03/08 13:11:18;;;;;;;9.52;4.75;;;;;;;;;;8322314;28;20496;-87
2023/03/08 13:15:25;;;;;;;6.43;3.22;;;;;;;;;;8362516;28;20056;-87
2023/03/08 13:19:31;;;;;;;5.60;3.67;;;;;;;;;;8363429;28;20389;-86
2023/03/08 13:23:38;;;;;;;11.77;6.22;;;;;;;;;;8363027;28;20036;-87
2023/03/08 13:27:50;;;;;;;8.52;4.80;;;;;;;;;;8363908;28;20120;-86
2023/03/08 13:31:56;;;;;;;16.50;6.65;;;;;;;;;;8351341;28;20045;-87
2023/03/08 13:36:01;;;;;;;21.17;7.68;;;;;;;;;;8363547;28;20060;-87
2023/03/08 13:40:15;;;;;;;10.60;5.22;;;;;;;;;;8364050;28;20053;-87
2023/03/08 13:44:21;;;;;;;5.55;2.97;;;;;;;;;;8364283;28;20056;-88
2023/03/08 13:48:30;;;;;;;6.78;4.38;;;;;;;;;;8364096;28;20071;-86
2023/03/08 13:52:37;;;;;;;6.72;3.65;;;;;;;;;;8363996;28;20559;-88
2023/03/08 13:56:44;;;;;;;9.57;4.75;;;;;;;;;;8363927;28;20127;-85
2023/03/08 14:01:01;;;;;;;8.30;4.80;;;;;;;;;;8363748;28;20049;-87
2023/03/08 14:05:16;;;;;;;16.38;8.60;;;;;;;;;;8362297;28;20049;-85
2023/03/08 14:09:21;;;;;;;7.88;5.03;;;;;;;;;;8364174;28;20044;-87
2023/03/08 14:13:27;;;;;;;6.45;3.60;;;;;;;;;;8363559;28;20116;-87
2023/03/08 14:17:35;;;;;;;7.32;4.28;;;;;;;;;;8363431;28;20556;-87
2023/03/08 14:21:39;;;;;;;7.35;4.07;;;;;;;;;;8360538;28;20045;-87
2023/03/08 14:25:43;;;;;;;11.00;4.72;;;;;;;;;;8348047;28;20045;-88
2023/03/08 14:29:46;;;;;;;9.65;5.60;;;;;;;;;;8346768;28;21427;-87
2023/03/08 14:33:59;;;;;;;10.77;5.45;;;;;;;;;;8353006;28;20124;-87
2023/03/08 14:38:02;;;;;;;8.50;4.80;;;;;;;;;;8352642;28;20085;-87
2023/03/08 14:42:18;;;;;;;12.90;6.68;;;;;;;;;;8362858;28;20075;-88
2023/03/08 14:46:23;;;;;;;10.27;4.15;;;;;;;;;;8362433;28;20454;-88
2023/03/08 14:50:29;;;;;;;9.35;5.22;;;;;;;;;;8361434;28;20041;-88
2023/03/08 14:54:34;;;;;;;9.23;5.13;;;;;;;;;;8362848;28;20052;-87
2023/03/08 14:58:41;;;;;;;9.20;5.18;;;;;;;;;;8354152;28;20128;-88
2023/03/08 15:02:44;;;;;;;8.48;3.90;;;;;;;;;;8351694;28;20045;-87
2023/03/08 15:06:49;;;;;;;6.25;4.20;;;;;;;;;;8365000;28;20048;-88
2023/03/08 15:10:53;;;;;;;11.63;6.78;;;;;;;;;;8361180;28;20075;-88
2023/03/08 15:14:57;;;;;;;9.10;4.93;;;;;;;;;;8349491;28;20489;-87
2023/03/08 15:19:01;;;;;;;17.55;7.50;;;;;;;;;;8336187;28;20065;-88
2023/03/08 15:23:07;;;;;;;15.85;8.52;;;;;;;;;;8356297;28;20481;-88
2023/03/08 15:27:14;;;;;;;9.07;4.93;;;;;;;;;;8351668;28;20572;-87
2023/03/08 15:31:19;;;;;;;13.68;7.13;;;;;;;;;;8365174;28;20506;-87
2023/03/08 15:35:22;;;;;;;13.75;7.10;;;;;;;;;;8361107;28;20052;-87
2023/03/08 15:39:25;;;;;;;23.50;12.13;;;;;;;;;;8375978;28;20060;-87
2023/03/08 15:43:30;;;;;;;11.95;6.28;;;;;;;;;;8368595;28;20048;-87
2023/03/08 15:47:34;;;;;;;19.25;13.05;;;;;;;;;;8362961;28;20098;-88
2023/03/08 15:51:38;;;;;;;10.93;5.80;;;;;;;;;;8356820;28;20045;-87
2023/03/08 15:55:41;;;;;;;15.82;10.65;;;;;;;;;;8358264;28;20476;-87
2023/03/08 15:59:44;;;;;;;12.32;7.40;;;;;;;;;;8367896;28;20037;-87
2023/03/08 16:03:52;;;;;;;12.95;5.78;;;;;;;;;;8364253;28;20075;-86
2023/03/08 16:07:55;;;;;;;11.25;5.40;;;;;;;;;;8365771;28;20535;-88
2023/03/08 16:11:59;;;;;;;15.00;6.53;;;;;;;;;;8366873;28;20045;-86
2023/03/08 16:16:03;;;;;;;18.63;6.90;;;;;;;;;;8369594;28;20167;-85
2023/03/08 16:20:09;;;;;;;11.85;6.63;;;;;;;;;;8366480;28;20044;-85
2023/03/08 16:24:12;;;;;;;24.88;12.02;;;;;;;;;;8366453;28;20041;-85
2023/03/08 16:28:15;;;;;;;58.80;36.45;;;;;;;;;;8366722;28;20045;-85
2023/03/08 16:32:20;;;;;;;22.20;16.42;;;;;;;;;;8366369;28;20095;-86
2023/03/08 16:36:25;;;;;;;14.75;9.25;;;;;;;;;;8366206;28;20863;-86
2023/03/08 16:40:30;;;;;;;14.40;8.63;;;;;;;;;;8365936;28;20069;-87
2023/03/08 16:44:33;;;;;;;22.55;12.98;;;;;;;;;;8365959;28;20556;-86
2023/03/08 16:48:36;;;;;;;36.13;19.17;;;;;;;;;;8365214;28;20515;-86
2023/03/08 16:52:41;;;;;;;16.63;9.38;;;;;;;;;;8364890;28;20052;-86
2023/03/08 16:56:44;;;;;;;14.52;7.65;;;;;;;;;;8365707;28;20041;-86
2023/03/08 17:00:48;;;;;;;14.02;7.82;;;;;;;;;;8365297;28;20141;-86
2023/03/08 17:04:51;;;;;;;14.55;7.93;;;;;;;;;;8366097;28;20071;-86
2023/03/08 17:08:57;;;;;;;19.40;8.20;;;;;;;;;;8343194;28;20481;-86
2023/03/08 17:13:00;;;;;;;13.23;7.72;;;;;;;;;;8359237;28;20041;-86
2023/03/08 17:17:03;;;;;;;20.98;10.10;;;;;;;;;;8361939;28;20075;-87
2023/03/08 17:21:08;;;;;;;17.08;8.63;;;;;;;;;;8357534;28;20128;-87
2023/03/08 17:25:13;;;;;;;13.55;7.85;;;;;;;;;;8362267;28;20040;-87
2023/03/08 17:29:16;;;;;;;13.98;7.43;;;;;;;;;;8364964;28;20472;-86
2023/03/08 17:33:24;;;;;;;355.70;146.48;;;;;;;;;;8364797;28;20072;-87
2023/03/08 17:37:27;;;;;;;101.30;48.55;;;;;;;;;;8365151;28;20560;-86
2023/03/08 17:41:34;;;;;;;66.68;36.72;;;;;;;;;;8365358;28;20052;-85
2023/03/08 17:45:38;;;;;;;35.05;13.63;;;;;;;;;;8364466;28;20049;-86
2023/03/08 17:49:42;;;;;;;25.27;11.45;;;;;;;;;;8364143;28;20048;-86
2023/03/08 17:53:47;;;;;;;18.45;11.85;;;;;;;;;;8364355;28;20096;-86
2023/03/08 17:57:52;;;;;;;20.33;10.30;;;;;;;;;;8364276;28;20504;-85
2023/03/08 18:01:55;;;;;;;74.57;29.95;;;;;;;;;;8344095;28;20045;-86
2023/03/08 18:05:58;;;;;;;30.33;13.43;;;;;;;;;;8363269;28;20401;-83
2023/03/08 18:10:02;;;;;;;39.35;16.33;;;;;;;;;;8362304;28;20045;-85
2023/03/08 18:14:11;;;;;;;44.53;19.20;;;;;;;;;;8362911;28;20047;-86
2023/03/08 18:18:17;;;;;;;25.33;11.63;;;;;;;;;;8360893;28;20415;-87
2023/03/08 18:22:20;;;;;;;58.20;24.50;;;;;;;;;;8361621;28;20045;-85
2023/03/08 18:26:24;;;;;;;30.95;13.65;;;;;;;;;;8365496;28;20041;-85
2023/03/08 18:30:30;;;;;;;44.67;18.33;;;;;;;;;;8363704;28;20142;-85
2023/03/08 18:34:34;;;;;;;68.93;27.73;;;;;;;;;;8363349;28;20049;-84
2023/03/08 18:38:38;;;;;;;27.40;13.15;;;;;;;;;;8347918;28;20064;-85
2023/03/08 18:43:02;;;;;;;32.30;14.77;;;;;;;;;;8355370;28;20051;-85
2023/03/08 18:47:10;;;;;;;32.63;14.05;;;;;;;;;;8342648;28;20049;-85
2023/03/08 18:51:16;;;;;;;37.72;18.98;;;;;;;;;;8352483;28;20037;-85
2023/03/08 18:55:21;;;;;;;38.30;16.10;;;;;;;;;;8368156;28;20454;-85
2023/03/08 18:59:26;;;;;;;38.50;18.35;;;;;;;;;;8379919;28;20529;-83
2023/03/08 19:03:38;;;;;;;38.75;17.77;;;;;;;;;;8374143;28;20545;-87
2023/03/08 19:07:41;;;;;;;35.45;13.73;;;;;;;;;;8360156;28;20087;-85
2023/03/08 19:11:46;;;;;;;30.92;14.30;;;;;;;;;;8375360;28;20127;-86
2023/03/08 19:15:51;;;;;;;37.22;14.77;;;;;;;;;;8366762;28;20049;-86
2023/03/08 19:19:59;;;;;;;29.15;14.48;;;;;;;;;;8369019;28;20508;-84
2023/03/08 19:24:05;;;;;;;40.60;18.70;;;;;;;;;;8363872;28;20051;-86
2023/03/08 19:28:09;;;;;;;40.35;16.98;;;;;;;;;;8373009;28;20484;-85
2023/03/08 19:32:16;;;;;;;41.60;17.23;;;;;;;;;;8364195;28;20473;-84
2023/03/08 19:36:23;;;;;;;36.42;17.02;;;;;;;;;;8369062;28;20381;-85
2023/03/08 19:40:33;;;;;;;51.03;21.05;;;;;;;;;;8370832;28;20447;-85
2023/03/08 19:44:37;;;;;;;36.20;16.83;;;;;;;;;;8370119;28;20065;-85
2023/03/08 19:48:42;;;;;;;80.70;34.15;;;;;;;;;;8369256;28;20410;-85
2023/03/08 19:52:51;;;;;;;59.97;26.15;;;;;;;;;;8367668;28;20045;-86
2023/03/08 19:56:58;;;;;;;105.60;44.55;;;;;;;;;;8370024;28;20056;-86
2023/03/08 20:01:07;;;;;;;62.53;23.55;;;;;;;;;;8370695;28;20429;-86
2023/03/08 20:05:12;;;;;;;44.03;17.55;;;;;;;;;;8381259;28;20036;-85
2023/03/08 20:09:22;;;;;;;50.38;21.05;;;;;;;;;;8369489;28;20049;-85
2023/03/08 20:13:29;;;;;;;51.20;23.20;;;;;;;;;;8367492;28;20044;-85
2023/03/08 20:17:37;;;;;;;46.20;21.58;;;;;;;;;;8398160;28;20037;-83
2023/03/08 20:21:43;;;;;;;82.88;25.45;;;;;;;;;;8358819;28;20061;-84
2023/03/08 20:25:49;;;;;;;243.55;57.65;;;;;;;;;;8355953;28;20045;-85
2023/03/08 20:29:55;;;;;;;305.80;71.97;;;;;;;;;;8366869;28;20052;-85
2023/03/08 20:34:00;;;;;;;165.05;44.92;;;;;;;;;;8357339;28;20051;-85
2023/03/08 20:38:06;;;;;;;273.58;86.30;;;;;;;;;;8360706;28;20057;-85
2023/03/08 20:42:14;;;;;;;257.02;87.07;;;;;;;;;;8363386;28;20045;-84
2023/03/08 20:46:21;;;;;;;197.10;75.10;;;;;;;;;;8362917;28;20040;-86
2023/03/08 20:50:28;;;;;;;42.08;17.23;;;;;;;;;;8364788;28;20064;-84
2023/03/08 20:54:33;;;;;;;69.25;29.08;;;;;;;;;;8360308;28;20042;-83
2023/03/08 20:58:41;;;;;;;82.82;29.90;;;;;;;;;;8352881;28;20049;-85
2023/03/08 21:02:57;;;;;;;62.60;25.25;;;;;;;;;;8360868;28;20393;-84
2023/03/08 21:07:02;;;;;;;108.43;32.97;;;;;;;;;;8363877;28;20480;-88
2023/03/08 21:11:07;;;;;;;51.03;22.30;;;;;;;;;;8362622;28;20128;-85
2023/03/08 21:15:16;;;;;;;55.95;20.70;;;;;;;;;;8364175;28;20045;-87
2023/03/08 21:19:22;;;;;;;59.63;22.58;;;;;;;;;;8365586;28;20048;-86
2023/03/08 21:23:27;;;;;;;56.25;21.10;;;;;;;;;;8365522;28;20040;-85
2023/03/08 21:27:35;;;;;;;70.05;27.88;;;;;;;;;;8379891;28;20111;-86
2023/03/08 21:31:42;;;;;;;75.82;26.60;;;;;;;;;;8367138;28;20049;-87
2023/03/08 21:35:49;;;;;;;60.40;25.70;;;;;;;;;;8366217;28;20628;-83
2023/03/08 21:39:54;;;;;;;50.00;21.27;;;;;;;;;;8365042;28;20088;-82
2023/03/08 21:43:58;;;;;;;62.95;26.27;;;;;;;;;;8367963;28;20052;-84
2023/03/08 21:48:03;;;;;;;68.60;30.25;;;;;;;;;;8364388;28;20044;-84
2023/03/08 21:52:07;;;;;;;58.63;27.70;;;;;;;;;;8364200;28;20052;-83
2023/03/08 21:56:12;;;;;;;52.03;23.02;;;;;;;;;;8364257;28;20045;-83
2023/03/08 22:00:17;;;;;;;69.53;29.13;;;;;;;;;;8364528;28;20063;-85
2023/03/08 22:04:22;;;;;;;51.08;20.85;;;;;;;;;;8363784;28;20047;-83
2023/03/08 22:08:24;;;;;;;58.85;24.58;;;;;;;;;;8364066;28;20052;-85
2023/03/08 22:12:27;;;;;;;65.82;26.83;;;;;;;;;;8363640;28;20041;-85
2023/03/08 22:16:31;;;;;;;54.00;24.00;;;;;;;;;;8364783;28;20075;-83
2023/03/08 22:20:36;;;;;;;60.92;25.05;;;;;;;;;;8365485;28;20045;-83
2023/03/08 22:24:39;;;;;;;56.15;24.92;;;;;;;;;;8362868;28;20044;-84
2023/03/08 22:28:42;;;;;;;50.08;22.85;;;;;;;;;;8363089;28;20055;-84
2023/03/08 22:32:45;;;;;;;80.60;30.13;;;;;;;;;;8350878;28;20044;-83
2023/03/08 22:36:49;;;;;;;129.88;47.05;;;;;;;;;;8363169;28;20472;-84
2023/03/08 22:40:52;;;;;;;125.43;46.78;;;;;;;;;;8362907;28;20538;-85
2023/03/08 22:44:55;;;;;;;131.88;48.80;;;;;;;;;;8362810;28;20075;-83
2023/03/08 22:49:01;;;;;;;97.22;40.47;;;;;;;;;;8361949;28;20052;-85
2023/03/08 22:53:06;;;;;;;136.98;48.85;;;;;;;;;;8362504;28;20075;-83
2023/03/08 22:57:09;;;;;;;103.63;39.90;;;;;;;;;;8362460;28;20404;-83
2023/03/08 23:01:16;;;;;;;302.92;111.85;;;;;;;;;;8362652;28;20051;-83
2023/03/08 23:05:20;;;;;;;171.60;57.17;;;;;;;;;;8362254;28;20041;-83
2023/03/08 23:09:25;;;;;;;98.97;39.28;;;;;;;;;;8348971;28;20041;-83
2023/03/08 23:13:28;;;;;;;53.63;21.83;;;;;;;;;;8362184;28;20411;-83
2023/03/08 23:17:31;;;;;;;156.85;40.20;;;;;;;;;;8362244;28;20053;-83
2023/03/08 23:21:36;;;;;;;102.38;33.78;;;;;;;;;;8362067;28;20048;-83
2023/03/08 23:25:42;;;;;;;129.27;41.97;;;;;;;;;;8362148;28;20099;-83
2023/03/08 23:29:45;;;;;;;111.00;35.85;;;;;;;;;;8362919;28;20045;-84
2023/03/08 23:33:49;;;;;;;136.90;42.95;;;;;;;;;;8373900;28;20041;-84
2023/03/08 23:37:52;;;;;;;130.93;39.05;;;;;;;;;;8361656;28;20072;-83
2023/03/08 23:41:56;;;;;;;143.90;43.58;;;;;;;;;;8361880;28;20098;-86
2023/03/08 23:45:59;;;;;;;93.50;33.20;;;;;;;;;;8362067;28;20373;-84
2023/03/08 23:50:02;;;;;;;100.05;35.30;;;;;;;;;;8361641;28;20044;-84
2023/03/08 23:54:05;;;;;;;89.25;34.55;;;;;;;;;;8362958;28;20052;-84
2023/03/08 23:58:09;;;;;;;88.45;31.85;;;;;;;;;;8372414;28;20374;-83
